En Direct

LFST 181230Z AUTO 06009KT 030V090 9999 BKN029 08/01 Q1036 NOSIG


TAF LFST 181100Z 1812/1912 03010KT CAVOK PROB40 TEMPO 1821/1824 2000 BR PROB30 TEMPO 1822/1824 0500 FZFG VV/// BECMG 1900/1902 18005KT 2000 BR OVC003 TEMPO 1900/1910 0500 FZFG VV/// PROB40 TEMPO 1902/1909 0200 BECMG 1910/1912 6000 NSW SCT003

Nos Avions

7 avions disponibles et entretenus par un atelier agréé, permettant tous types de vols (formation, promenade, voyage…)

l'école de pilotage

PPL, LAPL, Vol de nuit, SEP… Toutes ces formations sont dispensées par nos instructeurs bénévoles.
Formation Théorique Mermoz via la FFA

Notre Plateforme

Nous sommes basés à l’aéroport de Strasbourg-Entzheim (LFST) en plein coeur de l’Alsace qui permet de voyager rapidement outre Rhin, mais également de profiter des paysages variés

Nos réseaux

Suivez-nous sur les réseaux sociaux